createdAt,value
2023-03-03T00:03:16.645Z,1.30
2023-03-03T00:08:19.494Z,1.40
2023-03-03T00:13:24.053Z,1.40
2023-03-03T00:18:36.736Z,1.40
2023-03-03T00:23:40.630Z,1.30
2023-03-03T00:28:50.177Z,1.30
2023-03-03T00:33:57.318Z,1.30
2023-03-03T00:39:22.061Z,1.30
2023-03-03T00:44:43.748Z,1.20
2023-03-03T00:49:45.616Z,1.10
2023-03-03T00:54:47.440Z,1.00
2023-03-03T00:59:49.655Z,0.90
2023-03-03T01:04:53.434Z,0.90
2023-03-03T01:09:55.298Z,0.80
2023-03-03T01:14:57.265Z,0.70
2023-03-03T01:19:59.149Z,0.70
2023-03-03T01:25:03.488Z,0.60
2023-03-03T01:30:07.817Z,0.70
2023-03-03T01:35:10.066Z,0.70
2023-03-03T01:40:23.288Z,0.70
2023-03-03T01:46:01.483Z,0.70
2023-03-03T01:51:24.125Z,0.70
2023-03-03T01:56:26.887Z,0.70
2023-03-03T02:01:29.611Z,0.70
2023-03-03T02:06:35.598Z,0.70
2023-03-03T02:11:38.514Z,0.70
2023-03-03T02:16:40.922Z,0.80
2023-03-03T02:21:42.834Z,0.70
2023-03-03T02:26:46.168Z,0.70
2023-03-03T02:31:48.136Z,0.60
2023-03-03T02:36:50.099Z,0.60
2023-03-03T02:41:57.146Z,0.60
2023-03-03T02:46:59.430Z,0.60
2023-03-03T02:52:02.755Z,0.60
2023-03-03T02:57:05.414Z,0.50
2023-03-03T03:02:08.978Z,0.50
2023-03-03T03:07:11.831Z,0.50
2023-03-03T03:12:15.967Z,0.40
2023-03-03T03:17:17.891Z,0.40
2023-03-03T03:22:19.733Z,0.40
2023-03-03T03:27:23.431Z,0.30
2023-03-03T03:32:25.318Z,0.30
2023-03-03T03:37:27.209Z,0.20
2023-03-03T03:42:29.022Z,0.20
2023-03-03T03:47:30.910Z,0.10
2023-03-03T03:52:32.762Z,0.10
2023-03-03T03:57:35.131Z,0.10
2023-03-03T04:02:37.188Z,0.10
2023-03-03T04:07:39.129Z,0.10
2023-03-03T04:12:40.978Z,0.10
2023-03-03T04:17:43.113Z,0.00
2023-03-03T04:22:44.949Z,0.00
2023-03-03T04:27:46.923Z,0.00
2023-03-03T04:32:49.651Z,0.00
2023-03-03T04:37:51.576Z,0.00
2023-03-03T04:42:53.476Z,-0.10
2023-03-03T04:47:55.725Z,-0.10
2023-03-03T04:52:57.666Z,0.00
2023-03-03T04:57:59.567Z,0.00
2023-03-03T05:03:01.721Z,0.00
2023-03-03T05:08:03.635Z,0.00
2023-03-03T05:13:06.210Z,-0.10
2023-03-03T05:18:08.051Z,-0.10
2023-03-03T05:23:09.876Z,-0.10
2023-03-03T05:28:11.711Z,-0.10
2023-03-03T05:33:15.062Z,-0.20
2023-03-03T05:38:16.915Z,-0.10
2023-03-03T05:43:18.723Z,-0.20
2023-03-03T05:48:20.679Z,-0.10
2023-03-03T05:53:22.619Z,-0.20
2023-03-03T05:58:24.548Z,-0.10
2023-03-03T06:03:26.498Z,-0.10
2023-03-03T06:08:29.409Z,0.00
2023-03-03T06:13:31.375Z,0.00
2023-03-03T06:18:33.279Z,0.10
2023-03-03T06:23:35.239Z,0.00
2023-03-03T06:28:37.287Z,0.00
2023-03-03T06:33:39.368Z,0.00
2023-03-03T06:38:41.218Z,0.10
2023-03-03T06:43:43.247Z,0.30
2023-03-03T06:48:47.477Z,0.40
2023-03-03T06:53:52.990Z,0.50
2023-03-03T06:59:00.659Z,0.50
2023-03-03T07:04:11.099Z,0.60
2023-03-03T07:09:24.544Z,0.70
2023-03-03T07:14:26.630Z,1.10
2023-03-03T07:19:34.476Z,1.50
2023-03-03T07:24:37.270Z,2.00
2023-03-03T07:29:41.981Z,2.60
2023-03-03T07:34:46.908Z,3.10
2023-03-03T07:39:50.717Z,3.60
2023-03-03T07:44:54.466Z,4.40
2023-03-03T07:49:58.307Z,5.20
2023-03-03T07:55:02.509Z,6.00
2023-03-03T08:00:16.674Z,6.60
2023-03-03T08:05:31.889Z,6.90
2023-03-03T08:10:55.532Z,7.00
2023-03-03T08:16:09.759Z,6.90
2023-03-03T08:21:20.270Z,7.10
2023-03-03T08:26:23.144Z,7.40
2023-03-03T08:31:39.719Z,7.80
2023-03-03T08:36:42.945Z,7.90
2023-03-03T08:41:46.191Z,8.20
2023-03-03T08:46:49.179Z,8.30
2023-03-03T08:51:52.668Z,8.30
2023-03-03T08:56:54.525Z,8.30
2023-03-03T09:01:56.726Z,8.50
2023-03-03T09:06:58.637Z,8.90
2023-03-03T09:12:10.111Z,9.00
2023-03-03T09:17:33.331Z,9.10
2023-03-03T09:22:36.798Z,9.50
2023-03-03T09:27:39.550Z,9.80
2023-03-03T09:32:43.144Z,9.70
2023-03-03T09:37:45.122Z,10.00
2023-03-03T09:42:56.970Z,10.30
2023-03-03T09:48:17.562Z,10.70
2023-03-03T09:53:27.463Z,10.90
2023-03-03T09:58:50.748Z,11.40
2023-03-03T10:04:23.553Z,11.80
2023-03-03T10:09:31.258Z,11.60
2023-03-03T10:15:27.486Z,11.90
2023-03-03T10:20:34.789Z,12.50
2023-03-03T10:25:59.076Z,12.90
2023-03-03T10:31:12.147Z,13.40
2023-03-03T10:36:25.172Z,13.80
2023-03-03T10:41:36.100Z,13.90
2023-03-03T10:46:56.139Z,13.90
2023-03-03T10:52:36.486Z,14.20
2023-03-03T10:57:52.379Z,14.50
2023-03-03T11:03:15.763Z,14.40
2023-03-03T11:08:22.807Z,14.50
2023-03-03T11:13:29.178Z,14.40
2023-03-03T11:18:49.296Z,14.40
2023-03-03T11:24:20.290Z,14.50
2023-03-03T11:29:31.415Z,14.30
2023-03-03T11:35:01.250Z,14.40
2023-03-03T11:40:12.446Z,14.60
2023-03-03T11:45:19.178Z,14.70
2023-03-03T11:50:26.514Z,14.70
2023-03-03T11:55:37.743Z,14.70
2023-03-03T12:00:51.898Z,14.80
2023-03-03T12:06:30.593Z,15.10
2023-03-03T12:11:46.336Z,15.00
2023-03-03T12:16:52.196Z,14.90
2023-03-03T12:21:53.991Z,14.90
2023-03-03T12:27:17.627Z,14.70
2023-03-03T12:32:48.973Z,14.70
2023-03-03T12:37:53.961Z,14.60
2023-03-03T12:43:12.491Z,14.50
2023-03-03T12:48:21.291Z,14.30
2023-03-03T12:53:44.758Z,14.00
2023-03-03T12:59:14.273Z,13.90
2023-03-03T13:04:33.356Z,14.20
2023-03-03T13:09:50.595Z,14.20
2023-03-03T13:14:57.599Z,14.10
2023-03-03T13:20:01.539Z,14.00
2023-03-03T13:25:15.501Z,14.10
2023-03-03T13:30:23.106Z,14.10
2023-03-03T13:35:27.840Z,14.10
2023-03-03T13:41:11.190Z,14.00
2023-03-03T13:46:19.577Z,13.80
2023-03-03T13:51:43.050Z,13.60
2023-03-03T13:57:00.107Z,13.50
2023-03-03T14:02:04.453Z,13.40
2023-03-03T14:07:14.391Z,13.40
2023-03-03T14:12:29.720Z,13.40
2023-03-03T14:18:09.526Z,13.40
2023-03-03T14:23:50.072Z,13.20
2023-03-03T14:28:53.071Z,12.90
2023-03-03T14:34:03.426Z,12.60
2023-03-03T14:39:34.093Z,12.40
2023-03-03T14:44:37.500Z,12.30
2023-03-03T14:49:40.176Z,12.20
2023-03-03T14:54:46.151Z,12.20
2023-03-03T14:59:58.714Z,12.00
2023-03-03T15:05:26.548Z,12.00
2023-03-03T15:10:33.078Z,11.70
2023-03-03T15:15:35.014Z,11.70
2023-03-03T15:20:45.644Z,11.60
2023-03-03T15:25:59.835Z,11.50
2023-03-03T15:31:23.183Z,11.40
2023-03-03T15:36:27.783Z,11.30
2023-03-03T15:41:29.549Z,11.20
2023-03-03T15:46:53.612Z,11.10
2023-03-03T15:52:21.172Z,11.00
2023-03-03T15:57:37.865Z,10.90
2023-03-03T16:02:53.182Z,10.70
2023-03-03T16:08:14.829Z,10.50
2023-03-03T16:13:41.562Z,10.40
2023-03-03T16:19:12.089Z,10.20
2023-03-03T16:24:32.242Z,10.00
2023-03-03T16:29:43.216Z,9.80
2023-03-03T16:35:00.617Z,9.60
2023-03-03T16:40:11.462Z,9.40
2023-03-03T16:45:24.932Z,9.30
2023-03-03T16:50:45.428Z,9.00
2023-03-03T16:55:57.021Z,8.80
2023-03-03T17:01:22.116Z,8.60
2023-03-03T17:06:51.303Z,8.40
2023-03-03T17:12:17.805Z,8.20
2023-03-03T17:17:43.200Z,8.00
2023-03-03T17:22:46.356Z,7.80
2023-03-03T17:28:00.047Z,7.60
2023-03-03T17:33:26.056Z,7.60
2023-03-03T17:38:39.870Z,7.50
2023-03-03T17:44:09.297Z,7.30
2023-03-03T17:49:48.473Z,7.10
2023-03-03T17:55:04.028Z,6.90
2023-03-03T18:00:36.637Z,6.70
2023-03-03T18:06:02.743Z,6.60
2023-03-03T18:11:13.720Z,6.50
2023-03-03T18:16:24.430Z,6.30
2023-03-03T18:21:30.639Z,6.10
2023-03-03T18:26:35.844Z,6.00
2023-03-03T18:31:57.594Z,6.00
2023-03-03T18:37:31.442Z,6.00
2023-03-03T18:42:44.678Z,6.00
2023-03-03T18:48:45.134Z,6.00
2023-03-03T18:54:02.928Z,5.90
2023-03-03T18:59:08.616Z,5.70
2023-03-03T19:04:13.472Z,5.60
2023-03-03T19:09:50.572Z,5.60
2023-03-03T19:14:55.549Z,5.50
2023-03-03T19:20:12.264Z,5.40
2023-03-03T19:25:20.780Z,5.20
2023-03-03T19:30:28.438Z,5.10
2023-03-03T19:35:33.379Z,5.10
2023-03-03T19:41:08.898Z,5.00
2023-03-03T19:46:31.952Z,4.90
2023-03-03T19:51:48.098Z,4.80
2023-03-03T19:56:55.504Z,4.70
2023-03-03T20:02:14.202Z,4.70
2023-03-03T20:07:37.545Z,4.60
2023-03-03T20:12:53.239Z,4.60
2023-03-03T20:18:16.644Z,4.50
2023-03-03T20:23:24.733Z,4.40
2023-03-03T20:28:37.996Z,4.40
2023-03-03T20:34:04.350Z,4.20
2023-03-03T20:39:09.035Z,4.20
2023-03-03T20:44:35.668Z,4.10
2023-03-03T20:50:02.654Z,4.10
2023-03-03T20:55:40.133Z,4.00
2023-03-03T21:01:06.529Z,4.00
2023-03-03T21:06:15.549Z,3.80
2023-03-03T21:11:30.525Z,3.70
2023-03-03T21:16:32.957Z,3.60
2023-03-03T21:21:40.182Z,3.50
2023-03-03T21:26:55.652Z,3.40
2023-03-03T21:32:01.568Z,3.30
2023-03-03T21:37:12.234Z,3.20
2023-03-03T21:42:16.118Z,3.20
2023-03-03T21:47:22.964Z,3.10
2023-03-03T21:52:24.793Z,3.00
2023-03-03T21:57:26.924Z,2.80
2023-03-03T22:02:28.824Z,2.70
2023-03-03T22:07:30.721Z,2.50
2023-03-03T22:12:32.559Z,2.40
2023-03-03T22:17:34.406Z,2.40
2023-03-03T22:22:36.403Z,2.30
2023-03-03T22:27:38.255Z,2.20
2023-03-03T22:32:40.201Z,2.10
2023-03-03T22:37:42.115Z,2.10
2023-03-03T22:42:43.943Z,2.10
2023-03-03T22:47:45.879Z,2.10
2023-03-03T22:52:47.751Z,2.00
2023-03-03T22:57:49.643Z,2.00
2023-03-03T23:02:51.539Z,1.90
2023-03-03T23:07:53.410Z,1.80
2023-03-03T23:12:56.342Z,1.70
2023-03-03T23:17:58.177Z,1.60
2023-03-03T23:23:00.847Z,1.50
2023-03-03T23:28:02.743Z,1.40
2023-03-03T23:33:05.759Z,1.20
2023-03-03T23:38:07.638Z,1.20
2023-03-03T23:43:09.855Z,1.10
2023-03-03T23:48:11.749Z,1.10
2023-03-03T23:53:15.894Z,1.00
2023-03-03T23:58:29.731Z,0.90
